Lehigh, Kansas
Current Conditions -  °F | °C
As of 9:55 PM on Friday 19 Dec 2014 (Local Time) from KEWK Reporting Station
Overcast Overcast  
Wind Chill: 29°   Ceiling: 1500
Heat Index: 36°   Visibility: 6mi
Dew Point: 30°   Wind: 8mph
Humidity: 81%   Direction: 190°S
Pressure: 30.17"   Gusts: NA
Location:  38.37°N, 97.3°W
Report Text: KEWK 200355Z AUTO 19007KT 6SM OVC015 02/M01 A3017 RMK AO1
Loading
Personal Weather Stations






























Interactive Weather Map New forecast layout! Learn more

10-Day Weather Forecast

Advertisements
Track Severe Weather on mobile